createdAt,value
2023-03-04T00:00:12.293Z,83.34
2023-03-04T00:02:59.577Z,83.43
2023-03-04T00:05:27.075Z,83.25
2023-03-04T00:07:54.326Z,83.41
2023-03-04T00:10:22.415Z,83.32
2023-03-04T00:12:49.603Z,83.34
2023-03-04T00:15:16.804Z,83.46
2023-03-04T00:17:46.464Z,83.49
2023-03-04T00:20:16.786Z,83.44
2023-03-04T00:22:44.145Z,83.44
2023-03-04T00:25:12.336Z,83.52
2023-03-04T00:27:41.898Z,83.44
2023-03-04T00:30:11.700Z,83.65
2023-03-04T00:32:39.243Z,83.51
2023-03-04T00:35:10.956Z,83.54
2023-03-04T00:37:38.244Z,83.66
2023-03-04T00:40:06.867Z,83.58
2023-03-04T00:42:33.983Z,83.50
2023-03-04T00:45:01.192Z,83.49
2023-03-04T00:47:29.070Z,83.65
2023-03-04T00:49:56.729Z,83.64
2023-03-04T00:52:23.776Z,83.57
2023-03-04T00:54:51.057Z,83.57
2023-03-04T00:57:18.381Z,83.62
2023-03-04T00:59:47.882Z,83.79
2023-03-04T01:02:15.422Z,83.74
2023-03-04T01:04:43.156Z,83.45
2023-03-04T01:07:10.821Z,83.59
2023-03-04T01:09:38.224Z,83.48
2023-03-04T01:12:06.156Z,83.58
2023-03-04T01:14:33.342Z,83.56
2023-03-04T01:17:00.874Z,83.55
2023-03-04T01:19:28.397Z,83.40
2023-03-04T01:21:55.614Z,83.35
2023-03-04T01:24:22.877Z,83.12
2023-03-04T01:26:50.155Z,83.17
2023-03-04T01:29:17.373Z,83.13
2023-03-04T01:31:44.504Z,83.31
2023-03-04T01:34:13.105Z,83.39
2023-03-04T01:36:40.357Z,83.40
2023-03-04T01:39:08.238Z,83.59
2023-03-04T01:41:35.702Z,83.74
2023-03-04T01:44:03.865Z,83.89
2023-03-04T01:46:32.819Z,83.59
2023-03-04T01:49:01.297Z,83.54
2023-03-04T01:51:31.009Z,83.45
2023-03-04T01:53:58.810Z,83.24
2023-03-04T01:56:30.429Z,83.24
2023-03-04T01:59:16.455Z,83.37
2023-03-04T02:01:46.129Z,83.73
2023-03-04T02:04:14.275Z,83.67
2023-03-04T02:06:42.946Z,83.74
2023-03-04T02:09:10.383Z,83.71
2023-03-04T02:11:38.660Z,83.77
2023-03-04T02:14:07.505Z,83.95
2023-03-04T02:16:35.037Z,83.89
2023-03-04T02:19:02.978Z,84.11
2023-03-04T02:21:32.261Z,84.14
2023-03-04T02:24:08.455Z,84.23
2023-03-04T02:26:37.337Z,84.26
2023-03-04T02:29:06.022Z,84.31
2023-03-04T02:31:37.155Z,84.36
2023-03-04T02:34:07.997Z,84.53
2023-03-04T02:36:37.726Z,84.52
2023-03-04T02:39:09.406Z,84.75
2023-03-04T02:41:37.847Z,84.89
2023-03-04T02:44:05.353Z,84.84
2023-03-04T02:46:32.729Z,85.07
2023-03-04T02:49:00.025Z,85.00
2023-03-04T02:51:27.882Z,84.91
2023-03-04T02:53:55.135Z,85.14
2023-03-04T02:56:22.526Z,85.14
2023-03-04T02:58:49.742Z,85.11
2023-03-04T03:01:17.072Z,85.13
2023-03-04T03:03:44.591Z,85.15
2023-03-04T03:06:14.018Z,85.05
2023-03-04T03:08:41.519Z,85.09
2023-03-04T03:11:09.590Z,85.14
2023-03-04T03:13:37.170Z,85.22
2023-03-04T03:16:04.632Z,85.08
2023-03-04T03:18:31.761Z,85.03
2023-03-04T03:20:59.009Z,85.05
2023-03-04T03:23:29.538Z,85.08
2023-03-04T03:26:01.916Z,85.08
2023-03-04T03:28:29.315Z,84.96
2023-03-04T03:30:56.616Z,85.04
2023-03-04T03:33:23.879Z,84.96
2023-03-04T03:35:51.652Z,84.87
2023-03-04T03:38:19.088Z,84.92
2023-03-04T03:40:46.652Z,84.92
2023-03-04T03:43:13.943Z,84.92
2023-03-04T03:45:41.403Z,84.87
2023-03-04T03:48:08.982Z,84.81
2023-03-04T03:50:56.378Z,84.86
2023-03-04T03:53:23.498Z,84.69
2023-03-04T03:55:50.639Z,84.68
2023-03-04T03:58:17.999Z,84.61
2023-03-04T04:00:45.256Z,84.67
2023-03-04T04:03:15.675Z,84.66
2023-03-04T04:05:43.142Z,84.58
2023-03-04T04:08:11.445Z,84.60
2023-03-04T04:10:38.793Z,84.53
2023-03-04T04:13:05.988Z,84.42
2023-03-04T04:15:33.396Z,84.39
2023-03-04T04:18:00.542Z,84.28
2023-03-04T04:20:27.831Z,84.24
2023-03-04T04:22:54.885Z,84.15
2023-03-04T04:25:22.300Z,84.07
2023-03-04T04:27:49.581Z,83.99
2023-03-04T04:30:17.574Z,84.05
2023-03-04T04:32:44.719Z,83.82
2023-03-04T04:35:12.854Z,83.78
2023-03-04T04:37:40.228Z,83.73
2023-03-04T04:40:09.014Z,83.62
2023-03-04T04:42:36.534Z,83.53
2023-03-04T04:45:04.094Z,83.43
2023-03-04T04:47:31.253Z,83.38
2023-03-04T04:50:01.507Z,83.28
2023-03-04T04:52:28.717Z,83.30
2023-03-04T04:54:55.977Z,83.23
2023-03-04T04:57:23.698Z,83.13
2023-03-04T04:59:51.107Z,83.14
2023-03-04T05:02:18.344Z,83.20
2023-03-04T05:04:48.262Z,83.12
2023-03-04T05:07:15.474Z,83.15
2023-03-04T05:09:42.767Z,83.23
2023-03-04T05:12:10.436Z,83.21
2023-03-04T05:14:37.787Z,83.27
2023-03-04T05:17:04.902Z,83.24
2023-03-04T05:19:32.086Z,83.36
2023-03-04T05:21:59.243Z,83.29
2023-03-04T05:24:26.510Z,83.25
2023-03-04T05:26:53.859Z,83.25
2023-03-04T05:29:21.105Z,83.23
2023-03-04T05:31:48.250Z,83.15
2023-03-04T05:34:15.483Z,83.24
2023-03-04T05:36:42.551Z,83.32
2023-03-04T05:39:09.764Z,83.36
2023-03-04T05:41:36.975Z,83.28
2023-03-04T05:44:04.513Z,83.14
2023-03-04T05:46:33.537Z,83.23
2023-03-04T05:49:01.179Z,83.26
2023-03-04T05:51:28.534Z,83.30
2023-03-04T05:53:55.678Z,83.27
2023-03-04T05:56:23.767Z,83.33
2023-03-04T05:58:50.967Z,83.29
2023-03-04T06:01:18.733Z,83.21
2023-03-04T06:03:48.778Z,83.19
2023-03-04T06:06:15.936Z,83.21
2023-03-04T06:08:43.086Z,83.36
2023-03-04T06:11:10.644Z,83.31
2023-03-04T06:13:40.777Z,83.19
2023-03-04T06:16:11.156Z,83.26
2023-03-04T06:18:39.063Z,83.23
2023-03-04T06:21:06.980Z,83.29
2023-03-04T06:23:34.094Z,83.21
2023-03-04T06:26:02.437Z,83.29
2023-03-04T06:28:30.218Z,83.26
2023-03-04T06:30:58.910Z,83.18
2023-03-04T06:33:26.669Z,83.19
2023-03-04T06:35:57.555Z,83.22
2023-03-04T06:38:25.267Z,83.19
2023-03-04T06:40:53.887Z,83.20
2023-03-04T06:43:22.134Z,83.14
2023-03-04T06:45:50.510Z,83.22
2023-03-04T06:48:17.873Z,83.30
2023-03-04T06:50:45.219Z,83.23
2023-03-04T06:53:12.819Z,83.20
2023-03-04T06:55:40.130Z,83.19
2023-03-04T06:58:07.387Z,83.19
2023-03-04T07:00:35.083Z,83.21
2023-03-04T07:03:02.928Z,83.25
2023-03-04T07:05:30.825Z,83.21
2023-03-04T07:07:58.034Z,83.10
2023-03-04T07:10:25.316Z,83.09
2023-03-04T07:12:52.460Z,83.16
2023-03-04T07:15:19.658Z,83.07
2023-03-04T07:17:46.946Z,83.04
2023-03-04T07:20:15.282Z,82.97
2023-03-04T07:22:42.477Z,82.93
2023-03-04T07:25:11.291Z,82.95
2023-03-04T07:27:41.074Z,82.89
2023-03-04T07:30:11.147Z,82.73
2023-03-04T07:32:38.464Z,82.72
2023-03-04T07:35:06.057Z,82.58
2023-03-04T07:37:33.469Z,82.60
2023-03-04T07:40:00.821Z,82.63
2023-03-04T07:42:28.380Z,82.47
2023-03-04T07:45:00.340Z,82.45
2023-03-04T07:47:27.863Z,82.36
2023-03-04T07:49:56.282Z,82.35
2023-03-04T07:52:23.641Z,82.23
2023-03-04T07:54:50.992Z,82.15
2023-03-04T07:57:18.246Z,82.05
2023-03-04T07:59:45.510Z,82.08
2023-03-04T08:02:13.281Z,81.98
2023-03-04T08:04:40.820Z,81.90
2023-03-04T08:07:17.299Z,81.82
2023-03-04T08:09:44.574Z,81.87
2023-03-04T08:12:12.336Z,81.84
2023-03-04T08:14:39.558Z,81.76
2023-03-04T08:17:06.841Z,81.67
2023-03-04T08:19:34.422Z,81.65
2023-03-04T08:22:01.763Z,81.56
2023-03-04T08:24:29.186Z,81.37
2023-03-04T08:26:59.288Z,81.40
2023-03-04T08:29:27.785Z,81.32
2023-03-04T08:31:56.314Z,81.14
2023-03-04T08:34:26.038Z,81.23
2023-03-04T08:36:53.535Z,81.13
2023-03-04T08:39:21.616Z,81.13
2023-03-04T08:41:50.101Z,81.22
2023-03-04T08:44:18.467Z,81.23
2023-03-04T08:46:46.641Z,81.23
2023-03-04T08:49:15.595Z,81.25
2023-03-04T08:51:46.494Z,81.25
2023-03-04T08:54:14.001Z,81.22
2023-03-04T08:56:41.809Z,81.22
2023-03-04T08:59:12.551Z,81.16
2023-03-04T09:01:39.933Z,81.06
2023-03-04T09:04:07.454Z,80.93
2023-03-04T09:06:35.006Z,80.91
2023-03-04T09:09:02.700Z,80.96
2023-03-04T09:11:30.020Z,80.95
2023-03-04T09:13:57.708Z,80.85
2023-03-04T09:16:25.009Z,80.91
2023-03-04T09:19:02.987Z,80.74
2023-03-04T09:21:30.501Z,80.70
2023-03-04T09:23:57.857Z,80.66
2023-03-04T09:26:26.747Z,80.47
2023-03-04T09:28:55.758Z,80.29
2023-03-04T09:31:22.939Z,80.25
2023-03-04T09:33:51.740Z,80.23
2023-03-04T09:36:19.140Z,80.51
2023-03-04T09:38:47.412Z,80.23
2023-03-04T09:41:20.497Z,80.05
2023-03-04T09:43:48.840Z,79.99
2023-03-04T09:46:20.463Z,80.06
2023-03-04T09:48:51.733Z,80.14
2023-03-04T09:51:28.979Z,79.98
2023-03-04T09:54:06.370Z,80.05
2023-03-04T09:56:34.927Z,80.07
2023-03-04T09:59:11.111Z,80.13
2023-03-04T10:01:43.716Z,80.05
2023-03-04T10:04:42.026Z,79.96
2023-03-04T10:07:16.726Z,80.06
2023-03-04T10:09:48.970Z,80.00
2023-03-04T10:12:21.231Z,79.95
2023-03-04T10:14:54.011Z,80.15
2023-03-04T10:17:25.259Z,80.14
2023-03-04T10:20:00.111Z,80.10
2023-03-04T10:22:33.688Z,80.10
2023-03-04T10:25:04.114Z,80.00
2023-03-04T10:27:32.390Z,79.98
2023-03-04T10:30:01.922Z,79.95
2023-03-04T10:32:34.830Z,80.17
2023-03-04T10:35:02.156Z,79.97
2023-03-04T10:37:47.473Z,79.91
2023-03-04T10:40:23.783Z,79.88
2023-03-04T10:42:53.614Z,80.04
2023-03-04T10:45:26.384Z,80.27
2023-03-04T10:47:57.437Z,80.34
2023-03-04T10:50:29.790Z,80.49
2023-03-04T10:52:57.982Z,80.64
2023-03-04T10:55:29.697Z,80.59
2023-03-04T10:57:58.638Z,80.70
2023-03-04T11:00:33.626Z,81.01
2023-03-04T11:03:31.003Z,81.11
2023-03-04T11:06:11.959Z,81.30
2023-03-04T11:08:40.958Z,81.25
2023-03-04T11:11:25.343Z,81.51
2023-03-04T11:13:57.706Z,81.56
2023-03-04T11:16:31.411Z,81.69
2023-03-04T11:19:04.413Z,81.66
2023-03-04T11:21:35.596Z,81.88
2023-03-04T11:24:26.059Z,81.91
2023-03-04T11:27:01.968Z,81.98
2023-03-04T11:29:32.700Z,82.03
2023-03-04T11:32:07.720Z,82.11
2023-03-04T11:34:44.305Z,82.14
2023-03-04T11:37:18.938Z,82.26
2023-03-04T11:39:51.826Z,82.34
2023-03-04T11:42:30.830Z,82.37
2023-03-04T11:44:58.938Z,82.53
2023-03-04T11:47:37.064Z,82.57
2023-03-04T11:50:28.179Z,82.53
2023-03-04T11:53:12.590Z,82.58
2023-03-04T11:55:47.038Z,82.69
2023-03-04T11:58:42.456Z,82.64
2023-03-04T12:01:17.209Z,82.73
2023-03-04T12:04:17.576Z,82.77
2023-03-04T12:07:01.309Z,82.89
2023-03-04T12:09:40.833Z,83.05
2023-03-04T12:12:24.766Z,83.01
2023-03-04T12:15:02.382Z,83.07
2023-03-04T12:17:40.547Z,83.20
2023-03-04T12:20:35.237Z,83.39
2023-03-04T12:23:19.352Z,83.73
2023-03-04T12:25:52.654Z,84.05
2023-03-04T12:28:32.683Z,83.98
2023-03-04T12:31:09.743Z,84.00
2023-03-04T12:33:49.337Z,83.91
2023-03-04T12:36:26.492Z,84.03
2023-03-04T12:39:17.145Z,83.82
2023-03-04T12:41:54.115Z,83.71
2023-03-04T12:44:22.910Z,83.52
2023-03-04T12:47:08.999Z,83.21
2023-03-04T12:49:48.846Z,83.10
2023-03-04T12:52:23.887Z,82.92
2023-03-04T12:55:15.925Z,82.87
2023-03-04T12:57:44.000Z,82.20
2023-03-04T13:00:25.245Z,82.37
2023-03-04T13:03:02.078Z,82.06
2023-03-04T13:06:05.424Z,81.73
2023-03-04T13:08:39.721Z,81.50
2023-03-04T13:11:41.687Z,81.49
2023-03-04T13:14:29.135Z,81.78
2023-03-04T13:16:57.532Z,82.39
2023-03-04T13:19:51.197Z,81.96
2023-03-04T13:22:44.132Z,80.99
2023-03-04T13:25:33.572Z,79.77
2023-03-04T13:28:19.930Z,79.34
2023-03-04T13:31:13.554Z,78.82
2023-03-04T13:33:59.296Z,78.37
2023-03-04T13:36:59.758Z,77.75
2023-03-04T13:39:37.860Z,77.44
2023-03-04T13:42:44.049Z,77.67
2023-03-04T13:45:35.776Z,77.80
2023-03-04T13:48:04.353Z,76.83
2023-03-04T13:50:51.824Z,76.32
2023-03-04T13:53:44.497Z,76.20
2023-03-04T13:56:37.090Z,76.73
2023-03-04T13:59:28.272Z,77.12
2023-03-04T14:02:01.237Z,76.94
2023-03-04T14:04:36.077Z,77.13
2023-03-04T14:07:05.165Z,77.19
2023-03-04T14:10:01.156Z,77.04
2023-03-04T14:12:30.456Z,76.51
2023-03-04T14:15:00.597Z,76.43
2023-03-04T14:17:32.703Z,76.60
2023-03-04T14:20:29.922Z,75.99
2023-03-04T14:22:57.634Z,75.47
2023-03-04T14:25:27.509Z,75.37
2023-03-04T14:28:05.855Z,74.90
2023-03-04T14:30:43.619Z,74.26
2023-03-04T14:33:16.069Z,73.37
2023-03-04T14:35:49.606Z,72.15
2023-03-04T14:38:24.619Z,71.99
2023-03-04T14:40:58.392Z,71.66
2023-03-04T14:43:53.750Z,70.74
2023-03-04T14:46:23.539Z,68.80
2023-03-04T14:48:55.720Z,68.54
2023-03-04T14:51:37.822Z,68.68
2023-03-04T14:54:05.519Z,68.99
2023-03-04T14:56:37.335Z,68.70
2023-03-04T14:59:04.672Z,68.57
2023-03-04T15:01:35.448Z,67.41
2023-03-04T15:04:04.450Z,66.72
2023-03-04T15:06:38.320Z,66.29
2023-03-04T15:09:07.570Z,65.36
2023-03-04T15:11:47.739Z,63.68
2023-03-04T15:14:43.840Z,63.02
2023-03-04T15:17:37.979Z,62.90
2023-03-04T15:20:20.923Z,61.32
2023-03-04T15:23:08.632Z,60.02
2023-03-04T15:25:36.625Z,60.45
2023-03-04T15:28:04.201Z,60.31
2023-03-04T15:30:35.557Z,59.20
2023-03-04T15:33:03.298Z,58.37
2023-03-04T15:35:34.602Z,58.18
2023-03-04T15:38:03.434Z,58.44
2023-03-04T15:40:35.315Z,58.32
2023-03-04T15:43:06.023Z,57.87
2023-03-04T15:45:36.485Z,55.44
2023-03-04T15:48:08.105Z,55.65
2023-03-04T15:50:36.522Z,55.17
2023-03-04T15:53:11.826Z,55.31
2023-03-04T15:55:39.283Z,54.59
2023-03-04T15:58:07.791Z,55.18
2023-03-04T16:00:36.799Z,56.21
2023-03-04T16:03:04.220Z,56.47
2023-03-04T16:05:36.449Z,56.56
2023-03-04T16:08:06.916Z,55.21
2023-03-04T16:10:35.400Z,56.41
2023-03-04T16:13:02.670Z,56.51
2023-03-04T16:15:31.909Z,54.57
2023-03-04T16:17:59.836Z,54.74
2023-03-04T16:20:29.780Z,55.09
2023-03-04T16:23:00.139Z,55.07
2023-03-04T16:25:36.729Z,54.71
2023-03-04T16:28:04.449Z,54.56
2023-03-04T16:30:32.870Z,54.00
2023-03-04T16:33:00.141Z,53.37
2023-03-04T16:35:29.326Z,53.14
2023-03-04T16:37:56.973Z,53.39
2023-03-04T16:40:44.662Z,51.53
2023-03-04T16:43:16.511Z,51.95
2023-03-04T16:45:44.192Z,52.63
2023-03-04T16:48:11.608Z,52.50
2023-03-04T16:50:42.243Z,52.74
2023-03-04T16:53:30.195Z,52.28
2023-03-04T16:55:58.954Z,51.29
2023-03-04T16:58:26.268Z,51.96
2023-03-04T17:00:53.405Z,52.51
2023-03-04T17:03:20.474Z,52.89
2023-03-04T17:06:10.704Z,52.37
2023-03-04T17:08:38.363Z,51.17
2023-03-04T17:11:06.005Z,51.57
2023-03-04T17:13:33.450Z,51.95
2023-03-04T17:16:04.109Z,52.29
2023-03-04T17:18:31.641Z,52.08
2023-03-04T17:21:05.671Z,52.07
2023-03-04T17:23:32.985Z,52.16
2023-03-04T17:26:00.958Z,52.56
2023-03-04T17:28:28.915Z,52.32
2023-03-04T17:30:56.322Z,52.28
2023-03-04T17:33:27.157Z,52.37
2023-03-04T17:35:54.511Z,52.03
2023-03-04T17:38:24.544Z,51.50
2023-03-04T17:40:56.517Z,51.91
2023-03-04T17:43:24.265Z,51.96
2023-03-04T17:46:07.144Z,51.84
2023-03-04T17:48:37.059Z,51.24
2023-03-04T17:51:05.228Z,51.15
2023-03-04T17:53:52.765Z,51.00
2023-03-04T17:56:20.269Z,51.14
2023-03-04T17:58:49.346Z,50.85
2023-03-04T18:01:21.395Z,50.97
2023-03-04T18:03:57.524Z,50.57
2023-03-04T18:06:45.281Z,50.75
2023-03-04T18:09:12.464Z,50.76
2023-03-04T18:11:50.769Z,50.92
2023-03-04T18:14:18.404Z,50.68
2023-03-04T18:17:06.644Z,50.57
2023-03-04T18:19:53.995Z,50.32
2023-03-04T18:22:24.481Z,50.90
2023-03-04T18:24:51.812Z,50.56
2023-03-04T18:27:19.289Z,50.74
2023-03-04T18:29:46.818Z,51.01
2023-03-04T18:32:14.279Z,50.88
2023-03-04T18:34:41.507Z,51.01
2023-03-04T18:37:08.918Z,51.13
2023-03-04T18:39:37.161Z,51.21
2023-03-04T18:42:04.626Z,51.12
2023-03-04T18:44:32.375Z,51.17
2023-03-04T18:47:02.290Z,50.92
2023-03-04T18:49:29.553Z,50.97
2023-03-04T18:51:58.747Z,50.87
2023-03-04T18:54:29.385Z,50.61
2023-03-04T18:57:02.165Z,50.71
2023-03-04T18:59:37.297Z,50.56
2023-03-04T19:02:07.112Z,50.37
2023-03-04T19:04:34.976Z,50.30
2023-03-04T19:07:02.342Z,49.74
2023-03-04T19:09:30.166Z,49.81
2023-03-04T19:11:57.873Z,49.28
2023-03-04T19:14:25.115Z,49.83
2023-03-04T19:16:52.745Z,49.84
2023-03-04T19:19:20.447Z,49.73
2023-03-04T19:21:47.728Z,49.82
2023-03-04T19:24:15.358Z,49.78
2023-03-04T19:26:42.620Z,49.99
2023-03-04T19:29:10.017Z,49.90
2023-03-04T19:31:41.574Z,49.88
2023-03-04T19:34:09.020Z,49.87
2023-03-04T19:36:36.223Z,50.22
2023-03-04T19:39:04.097Z,50.19
2023-03-04T19:41:31.258Z,50.09
2023-03-04T19:43:58.437Z,49.97
2023-03-04T19:46:27.257Z,50.06
2023-03-04T19:48:54.640Z,49.92
2023-03-04T19:51:23.840Z,49.72
2023-03-04T19:53:52.063Z,50.30
2023-03-04T19:56:19.794Z,50.07
2023-03-04T19:58:48.474Z,50.22
2023-03-04T20:01:28.215Z,50.16
2023-03-04T20:03:56.091Z,50.56
2023-03-04T20:06:24.079Z,50.61
2023-03-04T20:08:51.676Z,50.61
2023-03-04T20:11:18.853Z,51.17
2023-03-04T20:13:47.036Z,50.97
2023-03-04T20:16:15.513Z,50.85
2023-03-04T20:18:45.634Z,51.08
2023-03-04T20:21:13.828Z,50.95
2023-03-04T20:23:41.564Z,51.34
2023-03-04T20:26:08.996Z,50.94
2023-03-04T20:28:49.501Z,51.42
2023-03-04T20:31:21.120Z,51.43
2023-03-04T20:33:50.340Z,51.57
2023-03-04T20:36:18.105Z,51.60
2023-03-04T20:38:45.883Z,51.63
2023-03-04T20:41:13.994Z,51.73
2023-03-04T20:43:41.704Z,51.45
2023-03-04T20:46:37.153Z,51.67
2023-03-04T20:49:06.416Z,51.75
2023-03-04T20:51:34.810Z,52.13
2023-03-04T20:54:22.856Z,52.19
2023-03-04T20:56:53.710Z,52.10
2023-03-04T20:59:31.311Z,52.18
2023-03-04T21:02:12.515Z,52.54
2023-03-04T21:04:41.074Z,52.40
2023-03-04T21:07:08.477Z,52.28
2023-03-04T21:09:35.584Z,52.55
2023-03-04T21:12:03.482Z,52.71
2023-03-04T21:14:32.394Z,52.19
2023-03-04T21:17:01.911Z,52.75
2023-03-04T21:19:31.303Z,52.66
2023-03-04T21:22:02.630Z,52.92
2023-03-04T21:24:32.437Z,52.62
2023-03-04T21:27:01.551Z,52.66
2023-03-04T21:29:29.533Z,52.90
2023-03-04T21:32:09.733Z,52.69
2023-03-04T21:34:48.432Z,52.74
2023-03-04T21:37:16.331Z,52.52
2023-03-04T21:42:16.124Z,52.85
2023-03-04T21:45:04.216Z,53.01
2023-03-04T21:47:31.521Z,53.18
2023-03-04T21:49:58.816Z,53.15
2023-03-04T21:52:26.134Z,53.11
2023-03-04T21:54:57.095Z,53.24
2023-03-04T21:57:24.745Z,53.30
2023-03-04T21:59:52.038Z,53.60
2023-03-04T22:02:20.959Z,53.92
2023-03-04T22:04:49.392Z,54.07
2023-03-04T22:07:17.689Z,54.58
2023-03-04T22:09:44.899Z,54.65
2023-03-04T22:12:12.365Z,54.64
2023-03-04T22:14:40.020Z,54.85
2023-03-04T22:17:07.545Z,54.87
2023-03-04T22:19:35.376Z,54.97
2023-03-04T22:22:02.709Z,54.94
2023-03-04T22:24:30.166Z,55.11
2023-03-04T22:26:59.915Z,55.13
2023-03-04T22:29:27.374Z,55.21
2023-03-04T22:31:55.331Z,55.50
2023-03-04T22:34:22.654Z,55.32
2023-03-04T22:36:50.627Z,55.17
2023-03-04T22:39:20.443Z,55.22
2023-03-04T22:41:48.016Z,55.39
2023-03-04T22:44:15.660Z,55.28
2023-03-04T22:46:43.799Z,55.43
2023-03-04T22:49:13.878Z,55.30
2023-03-04T22:51:43.064Z,55.28
2023-03-04T22:54:11.892Z,55.31
2023-03-04T22:56:39.396Z,55.57
2023-03-04T22:59:07.004Z,55.80
2023-03-04T23:01:34.331Z,55.89
2023-03-04T23:04:01.875Z,55.87
2023-03-04T23:06:30.763Z,56.16
2023-03-04T23:08:59.140Z,56.32
2023-03-04T23:11:28.769Z,56.37
2023-03-04T23:13:56.817Z,56.76
2023-03-04T23:16:27.908Z,56.94
2023-03-04T23:18:56.187Z,57.24
2023-03-04T23:21:28.358Z,57.84
2023-03-04T23:23:56.099Z,58.04
2023-03-04T23:26:26.102Z,58.55
2023-03-04T23:28:57.445Z,58.79
2023-03-04T23:31:25.902Z,59.14
2023-03-04T23:33:57.616Z,59.20
2023-03-04T23:36:27.136Z,59.10
2023-03-04T23:38:57.052Z,59.30
2023-03-04T23:41:26.664Z,59.67
2023-03-04T23:43:56.131Z,59.33
2023-03-04T23:46:24.088Z,59.59
2023-03-04T23:48:52.147Z,59.63
2023-03-04T23:51:27.509Z,59.90
2023-03-04T23:53:55.765Z,59.67
2023-03-04T23:56:25.782Z,59.73
2023-03-04T23:58:53.898Z,59.81
